KSIK/SIK METAR and TAF weather

Enter ICAO airport designator
Station Type Date Time Source
KSIK METAR 2022/06/26 08:35 UTC NOAA

KSIK 260835Z AUTO 21005KT 10SM CLR 28/20 A2997 RMK AO2


Station Type Date Time Source
KSIK Decoded METAR 2022/06/26 08:35 UTC NOAA

Station name not available
Jun 26, 2022 - 04:35 AM EDT / 2022.06.26 0835 UTC
Wind: from the SSW (210 degrees) at 6 MPH (5 KT):0
Visibility: 10 mile(s):0
Sky conditions: clear
Temperature: 82 F (28 C)
Dew Point: 68 F (20 C)
Relative Humidity: 61%
Pressure (altimeter): 29.97 in. Hg (1014 hPa)
ob: KSIK 260835Z AUTO 21005KT 10SM CLR 28/20 A2997 RMK AO2
cycle: 8

Station Type Date Time Source
KSIK TAF UTC NOAA

Error!

Example: see airport list